Terminal Aerodrome Forecast
Issued by NWS

Home | Current Version | Previous Version | Text Only | Print | Product List | Glossary On
Versions: 1 2 3 4 5 6 7 8 9 10 11 12 13 14 15 16 17 18 19
000
FTUS43 KPAH 301120
TAFOWB
TAF
KOWB 301120Z 3012/3112 17010KT P6SM SCT030 BKN060
      TEMPO 3012/3015 -SHRA
     FM301600 19012G22KT P6SM SCT035 BKN060
     FM302100 20013G23KT P6SM VCTS SCT035CB BKN060
      TEMPO 3021/3023 5SM -TSRA BR BKN025CB
     FM310000 21011G21KT P6SM SCT035 BKN070
     FM310300 23006KT P6SM SCT030 BKN070
     FM310900 23005KT P6SM OVC015=

USA.gov is the U.S. government's official web portal to all federal, state and local government web resources and services.